createdAt,value
2018-08-22T00:01:22.680Z,99.90
2018-08-22T00:03:50.032Z,99.90
2018-08-22T00:06:17.488Z,99.90
2018-08-22T00:08:45.719Z,99.90
2018-08-22T00:11:13.713Z,99.90
2018-08-22T00:13:42.058Z,99.90
2018-08-22T00:16:09.365Z,99.90
2018-08-22T00:18:36.696Z,99.90
2018-08-22T00:21:04.257Z,99.90
2018-08-22T00:23:31.708Z,99.90
2018-08-22T00:25:59.265Z,99.90
2018-08-22T00:28:26.687Z,99.90
2018-08-22T00:30:54.716Z,99.90
2018-08-22T00:33:22.121Z,99.90
2018-08-22T00:35:49.543Z,99.90
2018-08-22T00:38:16.913Z,99.90
2018-08-22T00:40:44.513Z,99.90
2018-08-22T00:43:13.623Z,99.90
2018-08-22T00:45:41.447Z,99.90
2018-08-22T00:48:08.991Z,99.90
2018-08-22T00:50:36.548Z,99.90
2018-08-22T00:53:04.048Z,99.90
2018-08-22T00:55:31.401Z,99.90
2018-08-22T00:57:59.575Z,99.90
2018-08-22T01:00:28.102Z,99.90
2018-08-22T01:02:56.626Z,99.90
2018-08-22T01:05:24.330Z,99.90
2018-08-22T01:07:53.071Z,99.90
2018-08-22T01:10:20.396Z,99.90
2018-08-22T01:12:47.808Z,99.90
2018-08-22T01:15:15.379Z,99.90
2018-08-22T01:17:42.795Z,99.90
2018-08-22T01:20:10.156Z,99.90
2018-08-22T01:22:37.756Z,99.90
2018-08-22T01:25:05.135Z,99.90
2018-08-22T01:27:32.506Z,99.90
2018-08-22T01:29:59.967Z,99.90
2018-08-22T01:32:27.528Z,99.90
2018-08-22T01:34:57.140Z,99.90
2018-08-22T01:37:25.393Z,99.90
2018-08-22T01:39:52.968Z,99.90
2018-08-22T01:42:20.371Z,99.90
2018-08-22T01:44:47.792Z,99.90
2018-08-22T01:47:15.589Z,99.90
2018-08-22T01:49:43.006Z,99.90
2018-08-22T01:52:10.995Z,99.90
2018-08-22T01:54:38.831Z,99.90
2018-08-22T01:57:06.712Z,99.90
2018-08-22T01:59:34.125Z,99.90
2018-08-22T02:02:03.020Z,99.90
2018-08-22T02:04:31.489Z,99.90
2018-08-22T02:06:59.594Z,99.90
2018-08-22T02:09:29.154Z,99.90
2018-08-22T02:11:58.906Z,99.90
2018-08-22T02:14:26.530Z,99.90
2018-08-22T02:16:54.179Z,99.90
2018-08-22T02:19:21.650Z,99.90
2018-08-22T02:21:50.481Z,99.90
2018-08-22T02:24:19.206Z,99.90
2018-08-22T02:26:48.845Z,99.90
2018-08-22T02:29:16.252Z,99.90
2018-08-22T02:31:43.616Z,99.90
2018-08-22T02:34:12.471Z,99.90
2018-08-22T02:36:40.683Z,99.90
2018-08-22T02:39:08.451Z,99.90
2018-08-22T02:41:35.764Z,99.90
2018-08-22T02:44:03.178Z,99.90
2018-08-22T02:46:30.574Z,99.90
2018-08-22T02:48:57.970Z,99.90
2018-08-22T02:51:25.930Z,99.90
2018-08-22T02:53:53.343Z,99.90
2018-08-22T02:56:21.208Z,99.90
2018-08-22T02:58:49.262Z,99.90
2018-08-22T03:01:17.670Z,99.90
2018-08-22T03:03:45.208Z,99.90
2018-08-22T03:06:13.897Z,99.90
2018-08-22T03:08:42.962Z,99.90
2018-08-22T03:11:11.068Z,99.90
2018-08-22T03:13:38.468Z,99.90
2018-08-22T03:16:05.983Z,99.90
2018-08-22T03:18:33.333Z,99.90
2018-08-22T03:21:01.607Z,99.90
2018-08-22T03:23:29.276Z,99.90
2018-08-22T03:25:58.680Z,99.90
2018-08-22T03:28:27.518Z,99.90
2018-08-22T03:30:55.712Z,99.90
2018-08-22T03:33:25.464Z,99.90
2018-08-22T03:35:53.040Z,99.90
2018-08-22T03:38:21.846Z,99.90
2018-08-22T03:40:51.541Z,99.90
2018-08-22T03:43:20.386Z,99.90
2018-08-22T03:45:48.318Z,99.90
2018-08-22T03:48:17.616Z,99.90
2018-08-22T03:50:45.375Z,99.90
2018-08-22T03:53:13.205Z,99.90
2018-08-22T03:55:41.106Z,99.90
2018-08-22T03:58:09.492Z,99.90
2018-08-22T04:00:37.030Z,99.90
2018-08-22T04:03:04.523Z,99.90
2018-08-22T04:05:32.251Z,99.90
2018-08-22T04:07:59.838Z,99.90
2018-08-22T04:10:27.304Z,99.90
2018-08-22T04:12:54.746Z,99.90
2018-08-22T04:15:22.178Z,99.90
2018-08-22T04:17:49.510Z,99.90
2018-08-22T04:20:16.866Z,99.90
2018-08-22T04:22:44.285Z,99.90
2018-08-22T04:25:11.677Z,99.90
2018-08-22T04:27:39.076Z,99.90
2018-08-22T04:30:06.467Z,99.90
2018-08-22T04:32:33.860Z,99.90
2018-08-22T04:35:01.210Z,99.90
2018-08-22T04:37:28.622Z,99.90
2018-08-22T04:39:56.027Z,99.90
2018-08-22T04:42:23.376Z,99.90
2018-08-22T04:44:50.989Z,99.90
2018-08-22T04:47:18.394Z,99.90
2018-08-22T04:49:45.882Z,99.90
2018-08-22T04:52:14.159Z,99.90
2018-08-22T04:54:41.674Z,99.90
2018-08-22T04:57:09.686Z,99.90
2018-08-22T04:59:37.178Z,99.90
2018-08-22T05:02:04.674Z,99.90
2018-08-22T05:04:32.238Z,99.90
2018-08-22T05:06:59.699Z,99.90
2018-08-22T05:09:27.111Z,99.90
2018-08-22T05:11:54.536Z,99.90
2018-08-22T05:14:21.963Z,99.90
2018-08-22T05:16:49.620Z,99.90
2018-08-22T05:19:18.211Z,99.90
2018-08-22T05:21:45.770Z,99.90
2018-08-22T05:24:13.577Z,99.90
2018-08-22T05:26:41.008Z,99.90
2018-08-22T05:29:08.446Z,99.90
2018-08-22T05:31:35.872Z,99.90
2018-08-22T05:34:03.387Z,99.80
2018-08-22T05:36:31.017Z,98.30
2018-08-22T05:38:58.978Z,97.00
2018-08-22T05:41:26.598Z,96.20
2018-08-22T05:43:54.174Z,95.20
2018-08-22T05:46:22.011Z,93.90
2018-08-22T05:48:49.749Z,92.80
2018-08-22T05:51:17.322Z,92.80
2018-08-22T05:53:44.905Z,91.20
2018-08-22T05:56:12.775Z,90.50
2018-08-22T05:58:40.403Z,90.30
2018-08-22T06:01:07.995Z,91.20
2018-08-22T06:03:36.444Z,91.40
2018-08-22T06:06:05.335Z,91.70
2018-08-22T06:08:32.808Z,91.40
2018-08-22T06:11:00.604Z,91.70
2018-08-22T06:13:28.195Z,91.30
2018-08-22T06:15:55.563Z,89.20
2018-08-22T06:18:23.205Z,83.20
2018-08-22T06:20:51.036Z,82.10
2018-08-22T06:23:18.943Z,81.00
2018-08-22T06:25:46.556Z,80.20
2018-08-22T06:28:14.109Z,77.40
2018-08-22T06:30:42.199Z,76.10
2018-08-22T06:33:10.028Z,75.50
2018-08-22T06:35:37.574Z,75.30
2018-08-22T06:38:05.646Z,73.60
2018-08-22T06:40:33.839Z,75.40
2018-08-22T06:43:01.914Z,75.70
2018-08-22T06:45:29.532Z,73.90
2018-08-22T06:47:57.108Z,73.80
2018-08-22T06:50:24.945Z,75.00
2018-08-22T06:52:52.698Z,73.50
2018-08-22T06:55:20.442Z,74.90
2018-08-22T06:57:48.373Z,74.90
2018-08-22T07:00:15.852Z,75.40
2018-08-22T07:02:43.370Z,74.40
2018-08-22T07:05:11.073Z,74.00
2018-08-22T07:07:38.583Z,73.70
2018-08-22T07:10:06.106Z,72.30
2018-08-22T07:12:33.617Z,72.50
2018-08-22T07:15:01.290Z,70.80
2018-08-22T07:17:28.824Z,71.30
2018-08-22T07:19:56.439Z,70.50
2018-08-22T07:22:24.033Z,70.10
2018-08-22T07:24:51.592Z,69.20
2018-08-22T07:27:20.042Z,70.40
2018-08-22T07:29:47.458Z,71.10
2018-08-22T07:32:15.931Z,71.80
2018-08-22T07:34:43.633Z,71.50
2018-08-22T07:37:11.198Z,71.40
2018-08-22T07:39:38.946Z,69.50
2018-08-22T07:42:06.451Z,69.50
2018-08-22T07:44:33.992Z,70.80
2018-08-22T07:47:01.578Z,69.90
2018-08-22T07:49:30.032Z,68.90
2018-08-22T07:51:57.850Z,69.50
2018-08-22T07:54:30.700Z,69.30
2018-08-22T07:56:58.409Z,68.80
2018-08-22T07:59:25.885Z,68.10
2018-08-22T08:01:53.503Z,68.00
2018-08-22T08:04:20.942Z,68.00
2018-08-22T08:06:48.473Z,67.50
2018-08-22T08:09:16.009Z,66.70
2018-08-22T08:11:43.468Z,67.30
2018-08-22T08:14:11.009Z,66.10
2018-08-22T08:16:38.458Z,67.00
2018-08-22T08:19:06.574Z,67.40
2018-08-22T08:21:34.066Z,67.50
2018-08-22T08:24:01.532Z,65.70
2018-08-22T08:26:29.069Z,65.20
2018-08-22T08:28:56.955Z,67.00
2018-08-22T08:31:24.660Z,66.10
2018-08-22T08:33:52.207Z,65.00
2018-08-22T08:36:20.447Z,65.50
2018-08-22T08:38:47.997Z,66.90
2018-08-22T08:41:15.533Z,67.60
2018-08-22T08:43:43.060Z,67.00
2018-08-22T08:46:10.747Z,67.30
2018-08-22T08:48:38.322Z,66.80
2018-08-22T08:51:06.142Z,66.40
2018-08-22T08:53:33.660Z,66.80
2018-08-22T08:56:01.336Z,65.60
2018-08-22T08:58:29.202Z,65.60
2018-08-22T09:00:56.831Z,65.00
2018-08-22T09:03:24.464Z,65.50
2018-08-22T09:05:52.417Z,65.00
2018-08-22T09:08:20.131Z,65.00
2018-08-22T09:10:47.658Z,64.90
2018-08-22T09:13:15.322Z,65.10
2018-08-22T09:15:43.709Z,65.30
2018-08-22T09:18:11.269Z,63.70
2018-08-22T09:20:39.569Z,63.30
2018-08-22T09:23:07.133Z,63.90
2018-08-22T09:25:35.541Z,65.10
2018-08-22T09:28:03.196Z,63.90
2018-08-22T09:30:31.760Z,63.50
2018-08-22T09:32:59.316Z,63.40
2018-08-22T09:35:27.517Z,63.50
2018-08-22T09:37:55.148Z,62.30
2018-08-22T09:40:22.727Z,63.30
2018-08-22T09:42:50.494Z,64.10
2018-08-22T09:45:18.032Z,62.70
2018-08-22T09:47:45.689Z,62.00
2018-08-22T09:50:13.608Z,62.30
2018-08-22T09:52:41.381Z,61.70
2018-08-22T09:55:09.130Z,61.40
2018-08-22T09:57:36.824Z,60.60
2018-08-22T10:00:05.630Z,61.10
2018-08-22T10:02:33.562Z,60.10
2018-08-22T10:05:00.993Z,59.90
2018-08-22T10:07:28.605Z,59.20
2018-08-22T10:09:56.309Z,58.90
2018-08-22T10:12:24.038Z,59.30
2018-08-22T10:14:51.607Z,58.60
2018-08-22T10:17:20.204Z,58.40
2018-08-22T10:19:47.768Z,58.50
2018-08-22T10:22:15.351Z,58.50
2018-08-22T10:24:42.817Z,58.50
2018-08-22T10:27:10.512Z,58.30
2018-08-22T10:29:37.967Z,58.50
2018-08-22T10:32:05.566Z,57.70
2018-08-22T10:34:33.315Z,58.40
2018-08-22T10:37:01.401Z,57.30
2018-08-22T10:39:28.984Z,56.50
2018-08-22T10:41:57.324Z,57.20
2018-08-22T10:44:25.139Z,56.40
2018-08-22T10:46:52.868Z,57.20
2018-08-22T10:49:21.242Z,57.00
2018-08-22T10:51:49.388Z,56.20
2018-08-22T10:54:17.266Z,56.40
2018-08-22T10:56:44.911Z,56.10
2018-08-22T10:59:13.514Z,55.80
2018-08-22T11:01:41.333Z,54.70
2018-08-22T11:04:08.957Z,54.00
2018-08-22T11:06:36.516Z,54.80
2018-08-22T11:09:06.268Z,54.40
2018-08-22T11:11:34.140Z,54.30
2018-08-22T11:14:01.722Z,54.40
2018-08-22T11:16:29.682Z,53.20
2018-08-22T11:18:57.406Z,53.10
2018-08-22T11:21:37.698Z,52.20
2018-08-22T11:24:17.747Z,51.60
2018-08-22T11:26:56.679Z,51.40
2018-08-22T11:29:35.564Z,52.00
2018-08-22T11:32:14.843Z,52.10
2018-08-22T11:34:45.565Z,52.80
2018-08-22T11:37:14.253Z,52.20
2018-08-22T11:39:44.309Z,50.60
2018-08-22T11:42:11.921Z,51.60
2018-08-22T11:44:39.811Z,51.80
2018-08-22T11:47:07.587Z,52.20
2018-08-22T11:49:35.233Z,50.40
2018-08-22T11:52:02.808Z,49.90
2018-08-22T11:54:31.212Z,50.60
2018-08-22T11:56:59.699Z,51.00
2018-08-22T11:59:27.360Z,51.50
2018-08-22T12:01:55.169Z,50.50
2018-08-22T12:04:23.115Z,50.70
2018-08-22T12:06:50.932Z,50.60
2018-08-22T12:09:18.615Z,50.40
2018-08-22T12:11:46.276Z,49.60
2018-08-22T12:14:13.996Z,49.60
2018-08-22T12:16:42.204Z,49.00
2018-08-22T12:19:10.177Z,48.70
2018-08-22T12:21:39.057Z,49.90
2018-08-22T12:24:06.627Z,48.90
2018-08-22T12:26:34.387Z,48.20
2018-08-22T12:29:03.651Z,48.50
2018-08-22T12:31:31.409Z,49.50
2018-08-22T12:34:01.829Z,49.00
2018-08-22T12:36:31.874Z,49.00
2018-08-22T12:39:00.205Z,48.30
2018-08-22T12:41:28.306Z,48.90
2018-08-22T12:43:56.623Z,48.00
2018-08-22T12:46:24.442Z,47.80
2018-08-22T12:48:52.166Z,47.70
2018-08-22T12:51:20.133Z,47.40
2018-08-22T12:53:47.768Z,47.50
2018-08-22T12:56:15.399Z,47.10
2018-08-22T12:58:43.120Z,47.00
2018-08-22T13:01:11.185Z,47.80
2018-08-22T13:03:39.472Z,47.60
2018-08-22T13:06:07.253Z,48.00
2018-08-22T13:08:34.734Z,47.50
2018-08-22T13:11:02.879Z,46.40
2018-08-22T13:13:30.705Z,47.20
2018-08-22T13:15:58.243Z,47.50
2018-08-22T13:18:26.722Z,46.60
2018-08-22T13:20:54.653Z,46.70
2018-08-22T13:23:22.190Z,47.50
2018-08-22T13:25:49.800Z,47.40
2018-08-22T13:28:17.508Z,47.40
2018-08-22T13:30:45.152Z,47.70
2018-08-22T13:33:12.721Z,47.90
2018-08-22T13:35:42.681Z,47.80
2018-08-22T13:38:10.298Z,47.10
2018-08-22T13:40:41.212Z,46.80
2018-08-22T13:43:10.179Z,46.70
2018-08-22T13:45:37.746Z,47.30
2018-08-22T13:48:06.611Z,47.20
2018-08-22T13:50:34.135Z,47.10
2018-08-22T13:53:01.693Z,47.30
2018-08-22T13:55:29.665Z,46.70
2018-08-22T13:57:57.238Z,46.50
2018-08-22T14:00:24.869Z,46.60
2018-08-22T14:02:52.452Z,46.50
2018-08-22T14:05:20.095Z,46.10
2018-08-22T14:07:49.481Z,46.10
2018-08-22T14:10:17.967Z,46.50
2018-08-22T14:12:46.368Z,46.80
2018-08-22T14:15:14.446Z,46.20
2018-08-22T14:17:42.851Z,46.20
2018-08-22T14:20:10.471Z,46.90
2018-08-22T14:22:38.054Z,47.00
2018-08-22T14:25:05.656Z,47.10
2018-08-22T14:27:33.811Z,46.80
2018-08-22T14:30:01.263Z,46.90
2018-08-22T14:32:28.907Z,48.40
2018-08-22T14:34:57.580Z,48.50
2018-08-22T14:37:25.197Z,48.20
2018-08-22T14:39:53.266Z,48.10
2018-08-22T14:42:20.970Z,47.00
2018-08-22T14:44:56.701Z,47.50
2018-08-22T14:47:31.206Z,47.20
2018-08-22T14:50:02.689Z,47.40
2018-08-22T14:52:38.729Z,47.30
2018-08-22T14:55:16.407Z,47.50
2018-08-22T14:57:47.715Z,46.90
2018-08-22T15:00:22.775Z,46.40
2018-08-22T15:02:56.216Z,46.50
2018-08-22T15:05:32.088Z,46.40
2018-08-22T15:10:39.899Z,47.70
2018-08-22T15:13:13.477Z,47.20
2018-08-22T15:15:46.216Z,47.40
2018-08-22T15:18:15.763Z,46.70
2018-08-22T15:20:48.035Z,47.00
2018-08-22T15:23:20.543Z,47.10
2018-08-22T15:25:54.850Z,47.40
2018-08-22T15:28:34.449Z,47.00
2018-08-22T15:31:09.675Z,46.40
2018-08-22T15:33:48.050Z,46.20
2018-08-22T15:36:22.585Z,46.50
2018-08-22T15:38:57.474Z,46.50
2018-08-22T15:41:41.709Z,46.50
2018-08-22T15:44:16.666Z,46.90
2018-08-22T15:46:48.910Z,47.00
2018-08-22T15:49:18.093Z,47.10
2018-08-22T15:51:55.740Z,46.40
2018-08-22T15:54:27.907Z,46.40
2018-08-22T15:57:00.106Z,46.30
2018-08-22T15:59:32.602Z,47.10
2018-08-22T16:02:01.344Z,47.20
2018-08-22T16:04:35.048Z,46.80
2018-08-22T16:07:07.151Z,47.00
2018-08-22T16:09:54.238Z,46.90
2018-08-22T16:15:04.081Z,47.30
2018-08-22T16:20:47.178Z,47.40
2018-08-22T16:27:15.096Z,47.70
2018-08-22T16:33:11.653Z,47.70
2018-08-22T16:35:46.852Z,47.50
2018-08-22T17:44:11.157Z,47.50
2018-08-22T17:46:42.181Z,52.10
2018-08-22T17:49:10.457Z,53.50
2018-08-22T17:52:03.804Z,53.30
2018-08-22T17:54:34.730Z,55.00
2018-08-22T17:57:15.073Z,56.40
2018-08-22T17:59:44.506Z,57.40
2018-08-22T18:02:12.845Z,58.00
2018-08-22T18:05:02.733Z,58.80
2018-08-22T18:07:32.888Z,59.70
2018-08-22T18:10:03.386Z,60.80
2018-08-22T18:12:32.823Z,61.70
2018-08-22T18:15:03.648Z,62.40
2018-08-22T18:17:32.287Z,63.30
2018-08-22T18:20:02.609Z,64.00
2018-08-22T18:22:40.070Z,64.40
2018-08-22T18:25:08.628Z,65.40
2018-08-22T18:27:40.542Z,65.50
2018-08-22T18:30:13.448Z,66.20
2018-08-22T18:32:44.371Z,66.30
2018-08-22T18:35:18.005Z,66.40
2018-08-22T18:40:33.912Z,67.40
2018-08-22T18:43:05.953Z,67.70
2018-08-22T18:45:36.021Z,67.90
2018-08-22T18:48:10.488Z,68.80
2018-08-22T18:50:58.988Z,69.10
2018-08-22T18:53:32.912Z,69.40
2018-08-22T18:56:13.325Z,69.80
2018-08-22T18:58:47.879Z,70.50
2018-08-22T19:01:19.060Z,71.70
2018-08-22T19:09:58.293Z,75.00
2018-08-22T19:12:28.992Z,75.30
2018-08-22T19:15:05.140Z,75.90
2018-08-22T19:17:41.825Z,75.60
2018-08-22T19:20:11.714Z,75.00
2018-08-22T19:22:44.375Z,75.50
2018-08-22T19:25:14.192Z,75.70
2018-08-22T19:27:49.297Z,76.10
2018-08-22T19:30:17.314Z,76.80
2018-08-22T19:32:49.170Z,77.90
2018-08-22T19:35:19.072Z,78.30
2018-08-22T19:38:25.013Z,79.50
2018-08-22T19:40:55.323Z,81.10
2018-08-22T19:43:25.415Z,82.00
2018-08-22T19:45:57.471Z,82.90
2018-08-22T19:48:28.893Z,83.80
2018-08-22T19:51:02.488Z,84.20
2018-08-22T19:53:39.752Z,84.40
2018-08-22T19:56:10.775Z,84.50
2018-08-22T19:58:43.425Z,84.50
2018-08-22T20:01:24.376Z,84.40
2018-08-22T20:03:57.729Z,84.70
2018-08-22T20:06:32.177Z,85.00
2018-08-22T20:09:02.529Z,85.40
2018-08-22T20:11:34.906Z,85.50
2018-08-22T20:14:06.318Z,85.90
2018-08-22T20:16:49.111Z,86.10
2018-08-22T20:19:18.766Z,86.30
2018-08-22T20:21:49.957Z,86.50
2018-08-22T20:27:26.613Z,89.20
2018-08-22T20:30:15.409Z,89.40
2018-08-22T21:39:27.391Z,88.10
2018-08-22T21:41:55.330Z,98.70
2018-08-22T21:44:24.134Z,99.10
2018-08-22T21:46:58.342Z,99.30
2018-08-22T21:49:26.467Z,99.50
2018-08-22T21:51:57.734Z,99.50
2018-08-22T21:54:27.105Z,99.90
2018-08-22T21:56:55.121Z,99.90
2018-08-22T21:59:24.094Z,99.90
2018-08-22T22:01:57.514Z,99.90
2018-08-22T22:04:36.805Z,99.90
2018-08-22T22:07:05.861Z,99.90
2018-08-22T22:09:34.328Z,99.90
2018-08-22T22:12:02.710Z,99.90
2018-08-22T22:14:31.580Z,99.90
2018-08-22T22:17:00.333Z,99.90
2018-08-22T22:19:30.088Z,99.90
2018-08-22T22:21:59.308Z,99.90
2018-08-22T22:24:27.931Z,99.90
2018-08-22T22:26:56.408Z,99.90
2018-08-22T22:29:26.199Z,99.90
2018-08-22T22:31:56.107Z,99.90
2018-08-22T22:34:27.385Z,99.90
2018-08-22T22:36:55.926Z,99.90
2018-08-22T22:39:39.816Z,99.90
2018-08-22T22:42:13.867Z,99.90
2018-08-22T22:44:43.910Z,99.90
2018-08-22T22:47:16.182Z,99.90
2018-08-22T22:49:43.986Z,99.90
2018-08-22T22:52:39.416Z,99.90
2018-08-22T22:55:08.335Z,99.90
2018-08-22T22:57:37.192Z,99.90
2018-08-22T23:00:07.159Z,99.90
2018-08-22T23:02:35.474Z,99.90
2018-08-22T23:05:03.354Z,99.90
2018-08-22T23:07:34.013Z,99.90
2018-08-22T23:10:04.770Z,99.90
2018-08-22T23:12:46.863Z,99.90
2018-08-22T23:15:18.127Z,99.90
2018-08-22T23:17:47.832Z,99.90
2018-08-22T23:20:37.052Z,99.90
2018-08-22T23:23:16.308Z,99.90
2018-08-22T23:25:45.399Z,99.90
2018-08-22T23:28:13.245Z,99.90
2018-08-22T23:30:41.170Z,99.90
2018-08-22T23:33:08.926Z,99.90
2018-08-22T23:35:36.748Z,99.90
2018-08-22T23:38:38.519Z,99.90
2018-08-22T23:41:06.324Z,99.90
2018-08-22T23:43:40.119Z,99.90
2018-08-22T23:46:09.315Z,99.90
2018-08-22T23:48:37.601Z,99.90
2018-08-22T23:51:08.976Z,99.90
2018-08-22T23:53:43.152Z,99.90
2018-08-22T23:56:16.340Z,99.90
2018-08-22T23:58:45.825Z,99.90
